sensor_id;sensor_type;location;lat;lon;timestamp;temperature;humidity
26990;DHT22;14537;47.788;11.858;2022-10-22T00:00:52;12.80;99.90
26990;DHT22;14537;47.788;11.858;2022-10-22T00:03:19;12.80;99.90
26990;DHT22;14537;47.788;11.858;2022-10-22T00:05:46;12.80;99.90
26990;DHT22;14537;47.788;11.858;2022-10-22T00:08:12;12.80;99.90
26990;DHT22;14537;47.788;11.858;2022-10-22T00:10:39;12.90;99.90
26990;DHT22;14537;47.788;11.858;2022-10-22T00:13:05;12.90;99.90
26990;DHT22;14537;47.788;11.858;2022-10-22T00:15:31;12.90;99.90
26990;DHT22;14537;47.788;11.858;2022-10-22T00:17:57;12.90;99.90
26990;DHT22;14537;47.788;11.858;2022-10-22T00:20:22;13.00;99.90
26990;DHT22;14537;47.788;11.858;2022-10-22T00:22:48;13.00;99.90
26990;DHT22;14537;47.788;11.858;2022-10-22T00:25:14;13.00;99.90
26990;DHT22;14537;47.788;11.858;2022-10-22T00:27:40;13.00;99.90
26990;DHT22;14537;47.788;11.858;2022-10-22T00:30:06;13.00;99.90
26990;DHT22;14537;47.788;11.858;2022-10-22T00:32:32;12.90;99.90
26990;DHT22;14537;47.788;11.858;2022-10-22T00:34:58;13.00;99.90
26990;DHT22;14537;47.788;11.858;2022-10-22T00:37:23;13.00;99.90
26990;DHT22;14537;47.788;11.858;2022-10-22T00:39:49;13.00;99.90
26990;DHT22;14537;47.788;11.858;2022-10-22T00:42:20;13.00;99.90
26990;DHT22;14537;47.788;11.858;2022-10-22T00:48:10;13.00;99.90
26990;DHT22;14537;47.788;11.858;2022-10-22T00:50:51;13.00;99.90
26990;DHT22;14537;47.788;11.858;2022-10-22T00:53:45;13.10;99.90
26990;DHT22;14537;47.788;11.858;2022-10-22T00:56:10;13.00;99.90
26990;DHT22;14537;47.788;11.858;2022-10-22T00:58:40;13.10;99.90
26990;DHT22;14537;47.788;11.858;2022-10-22T01:01:12;13.00;99.90
26990;DHT22;14537;47.788;11.858;2022-10-22T01:03:38;13.10;99.90
26990;DHT22;14537;47.788;11.858;2022-10-22T01:06:04;13.00;99.90
26990;DHT22;14537;47.788;11.858;2022-10-22T01:21:32;13.20;99.90
26990;DHT22;14537;47.788;11.858;2022-10-22T01:24:25;13.20;99.90
26990;DHT22;14537;47.788;11.858;2022-10-22T01:27:14;13.00;99.90
26990;DHT22;14537;47.788;11.858;2022-10-22T01:30:03;13.00;99.90
26990;DHT22;14537;47.788;11.858;2022-10-22T01:32:34;13.00;99.90
26990;DHT22;14537;47.788;11.858;2022-10-22T01:35:07;12.90;99.90
26990;DHT22;14537;47.788;11.858;2022-10-22T01:37:41;12.80;99.90
26990;DHT22;14537;47.788;11.858;2022-10-22T01:40:09;12.80;99.90
26990;DHT22;14537;47.788;11.858;2022-10-22T01:42:35;12.80;99.90
26990;DHT22;14537;47.788;11.858;2022-10-22T01:45:00;12.90;99.90
26990;DHT22;14537;47.788;11.858;2022-10-22T01:55:29;12.90;99.90
26990;DHT22;14537;47.788;11.858;2022-10-22T02:00:21;12.90;99.90
26990;DHT22;14537;47.788;11.858;2022-10-22T02:03:18;13.00;99.90
26990;DHT22;14537;47.788;11.858;2022-10-22T02:05:52;12.90;99.90
26990;DHT22;14537;47.788;11.858;2022-10-22T02:08:22;12.90;99.90
26990;DHT22;14537;47.788;11.858;2022-10-22T02:10:49;12.90;99.90
26990;DHT22;14537;47.788;11.858;2022-10-22T02:13:19;12.80;99.90
26990;DHT22;14537;47.788;11.858;2022-10-22T02:15:45;12.70;99.90
26990;DHT22;14537;47.788;11.858;2022-10-22T02:18:13;12.80;99.90
26990;DHT22;14537;47.788;11.858;2022-10-22T02:20:40;12.70;99.90
26990;DHT22;14537;47.788;11.858;2022-10-22T02:23:07;12.70;99.90
26990;DHT22;14537;47.788;11.858;2022-10-22T02:25:38;12.60;99.90
26990;DHT22;14537;47.788;11.858;2022-10-22T02:28:15;12.60;99.90
26990;DHT22;14537;47.788;11.858;2022-10-22T02:30:47;12.60;99.90
26990;DHT22;14537;47.788;11.858;2022-10-22T02:33:29;12.60;99.90
26990;DHT22;14537;47.788;11.858;2022-10-22T02:35:57;12.60;99.90
26990;DHT22;14537;47.788;11.858;2022-10-22T02:38:24;12.60;99.90
26990;DHT22;14537;47.788;11.858;2022-10-22T02:40:51;12.60;99.90
26990;DHT22;14537;47.788;11.858;2022-10-22T02:43:17;12.60;99.90
26990;DHT22;14537;47.788;11.858;2022-10-22T02:45:44;12.60;99.90
26990;DHT22;14537;47.788;11.858;2022-10-22T02:48:10;12.60;99.90
26990;DHT22;14537;47.788;11.858;2022-10-22T02:50:36;12.60;99.90
26990;DHT22;14537;47.788;11.858;2022-10-22T02:53:02;12.50;99.90
26990;DHT22;14537;47.788;11.858;2022-10-22T02:55:28;12.60;99.90
26990;DHT22;14537;47.788;11.858;2022-10-22T02:57:54;12.50;99.90
26990;DHT22;14537;47.788;11.858;2022-10-22T03:00:20;12.50;99.90
26990;DHT22;14537;47.788;11.858;2022-10-22T03:02:45;12.50;99.90
26990;DHT22;14537;47.788;11.858;2022-10-22T03:05:11;12.50;99.90
26990;DHT22;14537;47.788;11.858;2022-10-22T03:07:37;12.40;99.90
26990;DHT22;14537;47.788;11.858;2022-10-22T03:10:04;12.40;99.90
26990;DHT22;14537;47.788;11.858;2022-10-22T03:12:30;12.40;99.90
26990;DHT22;14537;47.788;11.858;2022-10-22T03:14:55;12.40;99.90
26990;DHT22;14537;47.788;11.858;2022-10-22T03:17:21;12.40;99.90
26990;DHT22;14537;47.788;11.858;2022-10-22T03:19:47;12.40;99.90
26990;DHT22;14537;47.788;11.858;2022-10-22T03:22:16;12.40;99.90
26990;DHT22;14537;47.788;11.858;2022-10-22T03:24:46;12.40;99.90
26990;DHT22;14537;47.788;11.858;2022-10-22T03:27:14;12.30;99.90
26990;DHT22;14537;47.788;11.858;2022-10-22T03:29:41;12.40;99.90
26990;DHT22;14537;47.788;11.858;2022-10-22T03:32:07;12.40;99.90
26990;DHT22;14537;47.788;11.858;2022-10-22T03:34:33;12.30;99.90
26990;DHT22;14537;47.788;11.858;2022-10-22T03:37:00;12.30;99.90
26990;DHT22;14537;47.788;11.858;2022-10-22T03:39:28;12.40;99.90
26990;DHT22;14537;47.788;11.858;2022-10-22T03:41:55;12.40;99.90
26990;DHT22;14537;47.788;11.858;2022-10-22T03:44:21;12.30;99.90
26990;DHT22;14537;47.788;11.858;2022-10-22T03:46:47;12.30;99.90
26990;DHT22;14537;47.788;11.858;2022-10-22T03:49:12;12.30;99.90
26990;DHT22;14537;47.788;11.858;2022-10-22T03:51:38;12.30;99.90
26990;DHT22;14537;47.788;11.858;2022-10-22T03:54:04;12.30;99.90
26990;DHT22;14537;47.788;11.858;2022-10-22T03:56:30;12.20;99.90
26990;DHT22;14537;47.788;11.858;2022-10-22T03:58:58;12.20;99.90
26990;DHT22;14537;47.788;11.858;2022-10-22T04:01:24;12.20;99.90
26990;DHT22;14537;47.788;11.858;2022-10-22T04:03:50;12.20;99.90
26990;DHT22;14537;47.788;11.858;2022-10-22T04:06:16;12.20;99.90
26990;DHT22;14537;47.788;11.858;2022-10-22T04:08:43;12.20;99.90
26990;DHT22;14537;47.788;11.858;2022-10-22T04:11:11;12.10;99.90
26990;DHT22;14537;47.788;11.858;2022-10-22T04:13:37;12.10;99.90
26990;DHT22;14537;47.788;11.858;2022-10-22T04:16:29;12.10;99.90
26990;DHT22;14537;47.788;11.858;2022-10-22T04:18:57;12.10;99.90
26990;DHT22;14537;47.788;11.858;2022-10-22T04:21:22;12.00;99.90
26990;DHT22;14537;47.788;11.858;2022-10-22T04:23:50;12.00;99.90
26990;DHT22;14537;47.788;11.858;2022-10-22T04:26:17;12.00;99.90
26990;DHT22;14537;47.788;11.858;2022-10-22T04:28:44;12.00;99.90
26990;DHT22;14537;47.788;11.858;2022-10-22T04:31:13;12.00;99.90
26990;DHT22;14537;47.788;11.858;2022-10-22T04:33:40;12.00;99.90
26990;DHT22;14537;47.788;11.858;2022-10-22T04:36:12;12.00;99.90
26990;DHT22;14537;47.788;11.858;2022-10-22T04:38:38;12.00;99.90
26990;DHT22;14537;47.788;11.858;2022-10-22T04:41:15;12.00;99.90
26990;DHT22;14537;47.788;11.858;2022-10-22T04:43:41;12.00;99.90
26990;DHT22;14537;47.788;11.858;2022-10-22T04:46:08;11.90;99.90
26990;DHT22;14537;47.788;11.858;2022-10-22T04:48:38;11.90;99.90
26990;DHT22;14537;47.788;11.858;2022-10-22T04:51:05;11.90;99.90
26990;DHT22;14537;47.788;11.858;2022-10-22T04:53:32;11.90;99.90
26990;DHT22;14537;47.788;11.858;2022-10-22T04:58:32;11.90;99.90
26990;DHT22;14537;47.788;11.858;2022-10-22T05:00:58;11.90;99.90
26990;DHT22;14537;47.788;11.858;2022-10-22T05:03:24;11.90;99.90
26990;DHT22;14537;47.788;11.858;2022-10-22T05:05:50;11.90;99.90
26990;DHT22;14537;47.788;11.858;2022-10-22T05:08:15;11.90;99.90
26990;DHT22;14537;47.788;11.858;2022-10-22T05:10:41;11.90;99.90
26990;DHT22;14537;47.788;11.858;2022-10-22T05:13:06;11.80;99.90
26990;DHT22;14537;47.788;11.858;2022-10-22T05:15:33;11.80;99.90
26990;DHT22;14537;47.788;11.858;2022-10-22T05:17:58;11.80;99.90
26990;DHT22;14537;47.788;11.858;2022-10-22T05:20:24;11.70;99.90
26990;DHT22;14537;47.788;11.858;2022-10-22T05:22:50;11.80;99.90
26990;DHT22;14537;47.788;11.858;2022-10-22T05:25:15;11.80;99.90
26990;DHT22;14537;47.788;11.858;2022-10-22T05:27:41;11.70;99.90
26990;DHT22;14537;47.788;11.858;2022-10-22T05:30:07;11.70;99.90
26990;DHT22;14537;47.788;11.858;2022-10-22T05:32:34;11.70;99.90
26990;DHT22;14537;47.788;11.858;2022-10-22T05:35:00;11.80;99.90
26990;DHT22;14537;47.788;11.858;2022-10-22T05:37:25;11.80;99.90
26990;DHT22;14537;47.788;11.858;2022-10-22T05:39:51;11.80;99.90
26990;DHT22;14537;47.788;11.858;2022-10-22T05:42:16;11.80;99.90
26990;DHT22;14537;47.788;11.858;2022-10-22T05:44:42;11.80;99.90
26990;DHT22;14537;47.788;11.858;2022-10-22T05:47:08;11.70;99.90
26990;DHT22;14537;47.788;11.858;2022-10-22T05:49:34;11.70;99.90
26990;DHT22;14537;47.788;11.858;2022-10-22T05:52:00;11.70;99.90
26990;DHT22;14537;47.788;11.858;2022-10-22T05:54:26;11.70;99.90
26990;DHT22;14537;47.788;11.858;2022-10-22T05:56:51;11.70;99.90
26990;DHT22;14537;47.788;11.858;2022-10-22T05:59:17;11.70;99.90
26990;DHT22;14537;47.788;11.858;2022-10-22T06:01:43;11.70;99.90
26990;DHT22;14537;47.788;11.858;2022-10-22T06:04:10;11.70;99.90
26990;DHT22;14537;47.788;11.858;2022-10-22T06:06:45;11.70;99.90
26990;DHT22;14537;47.788;11.858;2022-10-22T06:11:46;11.70;99.90
26990;DHT22;14537;47.788;11.858;2022-10-22T06:14:13;11.70;99.90
26990;DHT22;14537;47.788;11.858;2022-10-22T06:16:39;11.70;99.90
26990;DHT22;14537;47.788;11.858;2022-10-22T06:19:10;11.70;99.90
26990;DHT22;14537;47.788;11.858;2022-10-22T06:21:35;11.70;99.90
26990;DHT22;14537;47.788;11.858;2022-10-22T06:24:01;11.80;99.90
26990;DHT22;14537;47.788;11.858;2022-10-22T06:26:27;11.80;99.90
26990;DHT22;14537;47.788;11.858;2022-10-22T06:28:54;11.80;99.90
26990;DHT22;14537;47.788;11.858;2022-10-22T06:31:20;11.80;99.90
26990;DHT22;14537;47.788;11.858;2022-10-22T06:33:46;11.80;99.90
26990;DHT22;14537;47.788;11.858;2022-10-22T06:36:17;11.80;99.90
26990;DHT22;14537;47.788;11.858;2022-10-22T06:38:43;11.90;99.90
26990;DHT22;14537;47.788;11.858;2022-10-22T06:41:14;11.80;99.90
26990;DHT22;14537;47.788;11.858;2022-10-22T06:43:42;11.80;99.90
26990;DHT22;14537;47.788;11.858;2022-10-22T06:46:09;11.90;99.90
26990;DHT22;14537;47.788;11.858;2022-10-22T06:48:36;11.90;99.90
26990;DHT22;14537;47.788;11.858;2022-10-22T06:51:04;11.90;99.90
26990;DHT22;14537;47.788;11.858;2022-10-22T06:53:30;11.90;99.90
26990;DHT22;14537;47.788;11.858;2022-10-22T06:55:56;11.90;99.90
26990;DHT22;14537;47.788;11.858;2022-10-22T06:58:22;11.90;99.90
26990;DHT22;14537;47.788;11.858;2022-10-22T07:00:48;11.90;99.90
26990;DHT22;14537;47.788;11.858;2022-10-22T07:03:14;11.90;99.90
26990;DHT22;14537;47.788;11.858;2022-10-22T07:05:41;11.90;99.90
26990;DHT22;14537;47.788;11.858;2022-10-22T07:08:07;11.90;99.90
26990;DHT22;14537;47.788;11.858;2022-10-22T07:10:33;11.90;99.90
26990;DHT22;14537;47.788;11.858;2022-10-22T07:12:58;12.00;99.90
26990;DHT22;14537;47.788;11.858;2022-10-22T07:15:24;12.00;99.90
26990;DHT22;14537;47.788;11.858;2022-10-22T07:17:50;12.00;99.90
26990;DHT22;14537;47.788;11.858;2022-10-22T07:20:18;12.00;99.90
26990;DHT22;14537;47.788;11.858;2022-10-22T07:22:46;12.00;99.90
26990;DHT22;14537;47.788;11.858;2022-10-22T07:25:12;12.10;99.90
26990;DHT22;14537;47.788;11.858;2022-10-22T07:27:38;12.10;99.90
26990;DHT22;14537;47.788;11.858;2022-10-22T07:30:04;12.10;99.90
26990;DHT22;14537;47.788;11.858;2022-10-22T07:32:29;12.10;99.90
26990;DHT22;14537;47.788;11.858;2022-10-22T07:34:55;12.20;99.90
26990;DHT22;14537;47.788;11.858;2022-10-22T07:37:21;12.20;99.90
26990;DHT22;14537;47.788;11.858;2022-10-22T07:39:47;12.20;99.90
26990;DHT22;14537;47.788;11.858;2022-10-22T07:42:13;12.20;99.90
26990;DHT22;14537;47.788;11.858;2022-10-22T07:44:39;12.20;99.90
26990;DHT22;14537;47.788;11.858;2022-10-22T07:47:05;12.20;99.90
26990;DHT22;14537;47.788;11.858;2022-10-22T07:49:30;12.20;99.90
26990;DHT22;14537;47.788;11.858;2022-10-22T07:51:56;12.30;99.90
26990;DHT22;14537;47.788;11.858;2022-10-22T07:54:23;12.30;99.90
26990;DHT22;14537;47.788;11.858;2022-10-22T07:56:48;12.20;99.90
26990;DHT22;14537;47.788;11.858;2022-10-22T07:59:14;12.30;99.90
26990;DHT22;14537;47.788;11.858;2022-10-22T08:01:40;12.30;99.90
26990;DHT22;14537;47.788;11.858;2022-10-22T08:04:05;12.30;99.90
26990;DHT22;14537;47.788;11.858;2022-10-22T08:06:34;12.30;99.90
26990;DHT22;14537;47.788;11.858;2022-10-22T08:09:00;12.20;99.90
26990;DHT22;14537;47.788;11.858;2022-10-22T08:11:26;12.30;99.90
26990;DHT22;14537;47.788;11.858;2022-10-22T08:13:52;12.40;99.90
26990;DHT22;14537;47.788;11.858;2022-10-22T08:16:20;12.50;99.90
26990;DHT22;14537;47.788;11.858;2022-10-22T08:18:46;12.50;99.90
26990;DHT22;14537;47.788;11.858;2022-10-22T08:21:12;12.50;99.90
26990;DHT22;14537;47.788;11.858;2022-10-22T08:23:38;12.50;99.90
26990;DHT22;14537;47.788;11.858;2022-10-22T08:26:04;12.60;99.90
26990;DHT22;14537;47.788;11.858;2022-10-22T08:28:30;12.60;99.90
26990;DHT22;14537;47.788;11.858;2022-10-22T08:31:05;12.70;99.90
26990;DHT22;14537;47.788;11.858;2022-10-22T08:33:32;12.70;99.90
26990;DHT22;14537;47.788;11.858;2022-10-22T08:35:58;12.70;99.90
26990;DHT22;14537;47.788;11.858;2022-10-22T08:38:26;12.80;99.90
26990;DHT22;14537;47.788;11.858;2022-10-22T08:41:02;12.80;99.90
26990;DHT22;14537;47.788;11.858;2022-10-22T08:46:27;12.80;99.90
26990;DHT22;14537;47.788;11.858;2022-10-22T08:48:57;12.90;99.90
26990;DHT22;14537;47.788;11.858;2022-10-22T08:51:28;13.00;99.90
26990;DHT22;14537;47.788;11.858;2022-10-22T08:56:42;12.90;99.90
26990;DHT22;14537;47.788;11.858;2022-10-22T08:59:35;12.90;99.90
26990;DHT22;14537;47.788;11.858;2022-10-22T09:02:02;12.90;99.90
26990;DHT22;14537;47.788;11.858;2022-10-22T09:04:38;12.90;99.90
26990;DHT22;14537;47.788;11.858;2022-10-22T09:07:08;13.00;99.90
26990;DHT22;14537;47.788;11.858;2022-10-22T09:09:39;13.00;99.90
26990;DHT22;14537;47.788;11.858;2022-10-22T09:12:10;13.00;99.90
26990;DHT22;14537;47.788;11.858;2022-10-22T09:14:38;13.20;99.90
26990;DHT22;14537;47.788;11.858;2022-10-22T09:17:12;13.20;99.90
26990;DHT22;14537;47.788;11.858;2022-10-22T09:24:48;13.30;99.90
26990;DHT22;14537;47.788;11.858;2022-10-22T09:27:19;13.30;99.90
26990;DHT22;14537;47.788;11.858;2022-10-22T09:29:47;13.40;99.90
26990;DHT22;14537;47.788;11.858;2022-10-22T09:32:14;13.40;99.90
26990;DHT22;14537;47.788;11.858;2022-10-22T09:34:43;13.40;99.90
26990;DHT22;14537;47.788;11.858;2022-10-22T09:37:10;13.50;99.90
26990;DHT22;14537;47.788;11.858;2022-10-22T09:39:43;13.50;99.90
26990;DHT22;14537;47.788;11.858;2022-10-22T09:42:10;13.40;99.90
26990;DHT22;14537;47.788;11.858;2022-10-22T09:44:38;13.40;99.90
26990;DHT22;14537;47.788;11.858;2022-10-22T09:47:05;13.30;99.90
26990;DHT22;14537;47.788;11.858;2022-10-22T09:49:34;13.30;99.90
26990;DHT22;14537;47.788;11.858;2022-10-22T09:52:01;13.20;99.90
26990;DHT22;14537;47.788;11.858;2022-10-22T09:57:02;13.20;99.90
26990;DHT22;14537;47.788;11.858;2022-10-22T09:59:33;13.30;99.90
26990;DHT22;14537;47.788;11.858;2022-10-22T10:02:18;13.30;99.90
26990;DHT22;14537;47.788;11.858;2022-10-22T10:04:49;13.20;99.90
26990;DHT22;14537;47.788;11.858;2022-10-22T10:07:26;13.20;99.90
26990;DHT22;14537;47.788;11.858;2022-10-22T10:09:53;13.20;99.90
26990;DHT22;14537;47.788;11.858;2022-10-22T10:12:43;13.20;99.90
26990;DHT22;14537;47.788;11.858;2022-10-22T10:21:17;13.40;99.90
26990;DHT22;14537;47.788;11.858;2022-10-22T10:25:54;13.50;99.90
26990;DHT22;14537;47.788;11.858;2022-10-22T10:31:35;13.60;99.90
26990;DHT22;14537;47.788;11.858;2022-10-22T10:36:58;13.70;99.90
26990;DHT22;14537;47.788;11.858;2022-10-22T10:40:02;13.80;99.90
26990;DHT22;14537;47.788;11.858;2022-10-22T10:42:40;13.80;99.90
26990;DHT22;14537;47.788;11.858;2022-10-22T10:45:29;13.90;99.90
26990;DHT22;14537;47.788;11.858;2022-10-22T10:48:18;14.00;99.90
26990;DHT22;14537;47.788;11.858;2022-10-22T10:56:53;14.20;99.90
26990;DHT22;14537;47.788;11.858;2022-10-22T11:07:55;14.00;99.90
26990;DHT22;14537;47.788;11.858;2022-10-22T11:10:32;14.00;99.90
26990;DHT22;14537;47.788;11.858;2022-10-22T11:24:02;14.40;99.90
26990;DHT22;14537;47.788;11.858;2022-10-22T11:29:23;14.60;99.90
26990;DHT22;14537;47.788;11.858;2022-10-22T11:31:52;14.60;99.90
26990;DHT22;14537;47.788;11.858;2022-10-22T11:34:35;14.60;99.90
26990;DHT22;14537;47.788;11.858;2022-10-22T11:37:04;14.60;99.90
26990;DHT22;14537;47.788;11.858;2022-10-22T11:42:30;14.60;99.90
26990;DHT22;14537;47.788;11.858;2022-10-22T11:45:05;14.60;99.90
26990;DHT22;14537;47.788;11.858;2022-10-22T12:00:54;14.80;99.90
26990;DHT22;14537;47.788;11.858;2022-10-22T12:11:25;15.50;99.90
26990;DHT22;14537;47.788;11.858;2022-10-22T12:14:24;15.50;99.90
26990;DHT22;14537;47.788;11.858;2022-10-22T12:17:11;15.60;99.90
26990;DHT22;14537;47.788;11.858;2022-10-22T12:19:49;15.60;99.90
26990;DHT22;14537;47.788;11.858;2022-10-22T12:22:41;15.70;99.90
26990;DHT22;14537;47.788;11.858;2022-10-22T12:25:24;15.70;99.90
26990;DHT22;14537;47.788;11.858;2022-10-22T12:27:56;15.80;99.90
26990;DHT22;14537;47.788;11.858;2022-10-22T12:30:28;15.90;99.90
26990;DHT22;14537;47.788;11.858;2022-10-22T12:32:59;15.90;99.90
26990;DHT22;14537;47.788;11.858;2022-10-22T12:35:27;15.80;99.90
26990;DHT22;14537;47.788;11.858;2022-10-22T12:38:01;15.70;99.90
26990;DHT22;14537;47.788;11.858;2022-10-22T12:40:29;15.60;99.90
26990;DHT22;14537;47.788;11.858;2022-10-22T12:43:15;15.70;99.90
26990;DHT22;14537;47.788;11.858;2022-10-22T12:45:46;15.80;99.90
26990;DHT22;14537;47.788;11.858;2022-10-22T12:48:21;16.10;99.90
26990;DHT22;14537;47.788;11.858;2022-10-22T12:50:51;16.20;99.90
26990;DHT22;14537;47.788;11.858;2022-10-22T12:53:28;16.40;99.90
26990;DHT22;14537;47.788;11.858;2022-10-22T12:55:59;16.40;99.90
26990;DHT22;14537;47.788;11.858;2022-10-22T12:58:28;16.40;99.90
26990;DHT22;14537;47.788;11.858;2022-10-22T13:00:58;16.40;99.90
26990;DHT22;14537;47.788;11.858;2022-10-22T13:03:42;16.50;99.90
26990;DHT22;14537;47.788;11.858;2022-10-22T13:06:27;16.60;99.90
26990;DHT22;14537;47.788;11.858;2022-10-22T13:11:33;16.50;99.90
26990;DHT22;14537;47.788;11.858;2022-10-22T13:14:03;16.40;99.90
26990;DHT22;14537;47.788;11.858;2022-10-22T13:16:29;16.50;99.90
26990;DHT22;14537;47.788;11.858;2022-10-22T13:18:56;16.50;99.90
26990;DHT22;14537;47.788;11.858;2022-10-22T13:23:57;16.50;99.90
26990;DHT22;14537;47.788;11.858;2022-10-22T13:26:29;16.50;99.90
26990;DHT22;14537;47.788;11.858;2022-10-22T13:28:57;16.50;99.90
26990;DHT22;14537;47.788;11.858;2022-10-22T13:31:31;16.40;99.90
26990;DHT22;14537;47.788;11.858;2022-10-22T13:34:05;16.40;99.90
26990;DHT22;14537;47.788;11.858;2022-10-22T13:36:34;16.50;99.90
26990;DHT22;14537;47.788;11.858;2022-10-22T13:39:01;16.50;99.90
26990;DHT22;14537;47.788;11.858;2022-10-22T13:41:29;16.40;99.90
26990;DHT22;14537;47.788;11.858;2022-10-22T13:43:58;16.30;99.90
26990;DHT22;14537;47.788;11.858;2022-10-22T13:46:24;16.40;99.90
26990;DHT22;14537;47.788;11.858;2022-10-22T13:48:52;16.40;99.90
26990;DHT22;14537;47.788;11.858;2022-10-22T13:51:23;16.40;99.90
26990;DHT22;14537;47.788;11.858;2022-10-22T13:53:50;16.40;99.90
26990;DHT22;14537;47.788;11.858;2022-10-22T13:56:18;16.30;99.90
26990;DHT22;14537;47.788;11.858;2022-10-22T13:58:45;16.30;99.90
26990;DHT22;14537;47.788;11.858;2022-10-22T14:01:22;16.40;99.90
26990;DHT22;14537;47.788;11.858;2022-10-22T14:03:51;16.40;99.90
26990;DHT22;14537;47.788;11.858;2022-10-22T14:06:18;16.40;99.90
26990;DHT22;14537;47.788;11.858;2022-10-22T14:08:55;16.40;99.90
26990;DHT22;14537;47.788;11.858;2022-10-22T14:11:23;16.50;99.90
26990;DHT22;14537;47.788;11.858;2022-10-22T14:13:49;16.50;99.90
26990;DHT22;14537;47.788;11.858;2022-10-22T14:16:23;16.60;99.90
26990;DHT22;14537;47.788;11.858;2022-10-22T14:18:49;16.60;99.90
26990;DHT22;14537;47.788;11.858;2022-10-22T14:21:16;16.70;99.90
26990;DHT22;14537;47.788;11.858;2022-10-22T14:23:44;16.60;99.90
26990;DHT22;14537;47.788;11.858;2022-10-22T14:26:22;16.60;99.90
26990;DHT22;14537;47.788;11.858;2022-10-22T14:28:48;16.60;99.90
26990;DHT22;14537;47.788;11.858;2022-10-22T14:31:14;16.60;99.90
26990;DHT22;14537;47.788;11.858;2022-10-22T14:33:40;16.40;99.90
26990;DHT22;14537;47.788;11.858;2022-10-22T14:36:08;16.40;99.90
26990;DHT22;14537;47.788;11.858;2022-10-22T14:38:33;16.40;99.90
26990;DHT22;14537;47.788;11.858;2022-10-22T14:40:59;16.30;99.90
26990;DHT22;14537;47.788;11.858;2022-10-22T14:43:27;16.40;99.90
26990;DHT22;14537;47.788;11.858;2022-10-22T14:45:53;16.30;99.90
26990;DHT22;14537;47.788;11.858;2022-10-22T14:48:19;16.30;99.90
26990;DHT22;14537;47.788;11.858;2022-10-22T14:50:46;16.40;99.90
26990;DHT22;14537;47.788;11.858;2022-10-22T14:53:12;16.40;99.90
26990;DHT22;14537;47.788;11.858;2022-10-22T14:55:39;16.40;99.90
26990;DHT22;14537;47.788;11.858;2022-10-22T14:58:05;16.50;99.90
26990;DHT22;14537;47.788;11.858;2022-10-22T15:00:31;16.50;99.90
26990;DHT22;14537;47.788;11.858;2022-10-22T15:02:58;16.50;99.90
26990;DHT22;14537;47.788;11.858;2022-10-22T15:05:24;16.50;99.90
26990;DHT22;14537;47.788;11.858;2022-10-22T15:07:50;16.40;99.90
26990;DHT22;14537;47.788;11.858;2022-10-22T15:10:15;16.30;99.90
26990;DHT22;14537;47.788;11.858;2022-10-22T15:12:41;16.30;99.90
26990;DHT22;14537;47.788;11.858;2022-10-22T15:15:07;16.30;99.90
26990;DHT22;14537;47.788;11.858;2022-10-22T15:17:33;16.20;99.90
26990;DHT22;14537;47.788;11.858;2022-10-22T15:19:58;16.20;99.90
26990;DHT22;14537;47.788;11.858;2022-10-22T15:22:29;16.10;99.90
26990;DHT22;14537;47.788;11.858;2022-10-22T15:25:00;16.10;99.90
26990;DHT22;14537;47.788;11.858;2022-10-22T15:27:25;15.90;99.90
26990;DHT22;14537;47.788;11.858;2022-10-22T15:29:51;15.90;99.90
26990;DHT22;14537;47.788;11.858;2022-10-22T15:32:17;15.90;99.90
26990;DHT22;14537;47.788;11.858;2022-10-22T15:34:43;15.70;99.90
26990;DHT22;14537;47.788;11.858;2022-10-22T15:37:10;15.60;99.90
26990;DHT22;14537;47.788;11.858;2022-10-22T15:39:40;15.40;99.90
26990;DHT22;14537;47.788;11.858;2022-10-22T15:42:07;15.30;99.90
26990;DHT22;14537;47.788;11.858;2022-10-22T15:44:33;15.20;99.90
26990;DHT22;14537;47.788;11.858;2022-10-22T15:47:02;15.10;99.90
26990;DHT22;14537;47.788;11.858;2022-10-22T15:49:29;15.00;99.90
26990;DHT22;14537;47.788;11.858;2022-10-22T15:51:55;14.80;99.90
26990;DHT22;14537;47.788;11.858;2022-10-22T15:54:23;14.70;99.90
26990;DHT22;14537;47.788;11.858;2022-10-22T15:56:49;14.50;99.90
26990;DHT22;14537;47.788;11.858;2022-10-22T15:59:16;14.40;99.90
26990;DHT22;14537;47.788;11.858;2022-10-22T16:01:42;14.30;99.90
26990;DHT22;14537;47.788;11.858;2022-10-22T16:04:08;14.20;99.90
26990;DHT22;14537;47.788;11.858;2022-10-22T16:06:38;14.10;99.90
26990;DHT22;14537;47.788;11.858;2022-10-22T16:09:07;13.90;99.90
26990;DHT22;14537;47.788;11.858;2022-10-22T16:11:34;13.80;99.90
26990;DHT22;14537;47.788;11.858;2022-10-22T16:14:00;13.70;99.90
26990;DHT22;14537;47.788;11.858;2022-10-22T16:16:27;13.60;99.90
26990;DHT22;14537;47.788;11.858;2022-10-22T16:18:53;13.50;99.90
26990;DHT22;14537;47.788;11.858;2022-10-22T16:21:20;13.40;99.90
26990;DHT22;14537;47.788;11.858;2022-10-22T16:23:46;13.30;99.90
26990;DHT22;14537;47.788;11.858;2022-10-22T16:26:13;13.30;99.90
26990;DHT22;14537;47.788;11.858;2022-10-22T16:28:40;13.20;99.90
26990;DHT22;14537;47.788;11.858;2022-10-22T16:31:08;13.10;99.90
26990;DHT22;14537;47.788;11.858;2022-10-22T16:33:35;13.00;99.90
26990;DHT22;14537;47.788;11.858;2022-10-22T16:36:01;13.00;99.90
26990;DHT22;14537;47.788;11.858;2022-10-22T16:38:27;12.90;99.90
26990;DHT22;14537;47.788;11.858;2022-10-22T16:40:53;12.80;99.90
26990;DHT22;14537;47.788;11.858;2022-10-22T16:43:19;12.70;99.90
26990;DHT22;14537;47.788;11.858;2022-10-22T16:45:50;12.70;99.90
26990;DHT22;14537;47.788;11.858;2022-10-22T16:48:17;12.60;99.90
26990;DHT22;14537;47.788;11.858;2022-10-22T16:50:43;12.50;99.90
26990;DHT22;14537;47.788;11.858;2022-10-22T16:53:10;12.50;99.90
26990;DHT22;14537;47.788;11.858;2022-10-22T16:55:37;12.40;99.90
26990;DHT22;14537;47.788;11.858;2022-10-22T16:58:04;12.30;99.90
26990;DHT22;14537;47.788;11.858;2022-10-22T17:00:30;12.30;99.90
26990;DHT22;14537;47.788;11.858;2022-10-22T17:02:55;12.20;99.90
26990;DHT22;14537;47.788;11.858;2022-10-22T17:05:22;12.00;99.90
26990;DHT22;14537;47.788;11.858;2022-10-22T17:07:48;11.90;99.90
26990;DHT22;14537;47.788;11.858;2022-10-22T17:10:14;11.90;99.90
26990;DHT22;14537;47.788;11.858;2022-10-22T17:12:40;11.80;99.90
26990;DHT22;14537;47.788;11.858;2022-10-22T17:15:06;11.70;99.90
26990;DHT22;14537;47.788;11.858;2022-10-22T17:17:32;11.70;99.90
26990;DHT22;14537;47.788;11.858;2022-10-22T17:19:58;11.60;99.90
26990;DHT22;14537;47.788;11.858;2022-10-22T17:22:24;11.60;99.90